• Join FlightAware (Why Join?)
  • Login
  • US Flag 
09:55AM EDT


 

Airport Tracker/Info


-or-


 

Live Flight TrackerFlight Track Log ✈ C-GFSG ✈ 17-Aug-2013 ✈ CYPA - CYVC

Flight Track Log - Related Links

Times and Time Zones

All times are in EDT time to prevent confusion due to time zone crossing. See the C-GFSG flight status page for this flight to view local times or setup timezone preferences in your user account.

Time Position Orientation Groundspeed Altitude Reporting Facility
EDT Latitude Longitude Course Direction KTS MPH feet Rate Location/Type
03:39PM 53.3167 -105.7167 22° Northeast 150 173 8,300  Level Winnipeg Center
03:40PM 53.3500 -105.7000 17° North 160 184 10,100 1,920 Climbing Winnipeg Center
03:41PM 53.4000 -105.6500 31° Northeast 170 196 12,200 1,860 Climbing Winnipeg Center
03:42PM 53.6196 -105.5761 North  Level FlightAware Approximate
03:42PM 53.4333 -105.6667 343° North 170 196 13,900  Level Winnipeg Center
03:43PM 53.6796 -105.5641 North  Level FlightAware Approximate
03:43PM 53.5000 -105.6500 North 210 242 14,100  Level Winnipeg Center
03:44PM 53.5667 -105.6333 North 250 288 14,000 -60 Descending Winnipeg Center
03:45PM 53.6333 -105.5833 24° Northeast 260 299 14,000  Level Winnipeg Center
03:46PM 53.7167 -105.6000 353° North 270 311 14,000  Level Winnipeg Center
03:47PM 53.7833 -105.6000 360° North 270 311 14,000  Level Winnipeg Center
03:48PM 53.8667 -105.5500 19° North 270 311 14,000  Level Winnipeg Center
03:49PM 53.9500 -105.5333 North 260 299 14,000  Level Winnipeg Center
03:50PM 54.0167 -105.5333 360° North 260 299 14,000  Level Winnipeg Center
03:51PM 54.0833 -105.5167 North 260 299 14,000  Level Winnipeg Center
03:52PM 54.1500 -105.5000 North 260 299 14,000  Level Winnipeg Center
03:53PM 54.2167 -105.4833 North 260 299 14,000  Level Winnipeg Center
03:54PM 54.3000 -105.4667 North 260 299 14,000  Level Winnipeg Center
03:55PM 54.3667 -105.4500 North 260 299 14,000  Level Winnipeg Center
03:56PM 54.4333 -105.4333 North 260 299 14,000  Level Winnipeg Center
03:57PM 54.5167 -105.4333 360° North 260 299 14,000 -420 Level Winnipeg Center
03:58PM 54.6000 -105.4167 North 260 299 13,200 -1,440 Descending Winnipeg Center
03:59PM 54.6833 -105.4000 North 280 322 11,200 -1,800 Descending Winnipeg Center
04:00PM 54.7500 -105.3833 North 280 322 9,600 -1,500 Descending Winnipeg Center
04:01PM 54.8167 -105.3667 North 270 311 8,200 -1,440 Descending Winnipeg Center
04:02PM 54.8833 -105.3500 North 230 265 6,800 -1,440 Descending Winnipeg Center
04:03PM 54.9333 -105.3333 11° North 220 253 5,400 -1,320 Descending Winnipeg Center
04:04PM 55.0000 -105.3167 North 210 242 4,200 -1,080 Descending Winnipeg Center
04:05PM 55.0500 -105.3000 11° North 190 219 3,300 -1,020 Descending Winnipeg Center
04:06PM 55.0833 -105.3167 344° North 160 184 2,200 -960 Descending Winnipeg Center
04:07PM 55.1167 -105.2833 30° Northeast 130 150 1,400 -840 Descending Winnipeg Center